sensor_id;sensor_type;location;lat;lon;timestamp;temperature;humidity
79762;DHT22;69249;42.122;24.734;2023-05-21T00:01:39;19.30;58.20
79762;DHT22;69249;42.122;24.734;2023-05-21T00:04:05;19.10;58.90
79762;DHT22;69249;42.122;24.734;2023-05-21T00:06:33;19.00;59.00
79762;DHT22;69249;42.122;24.734;2023-05-21T00:09:01;19.00;59.20
79762;DHT22;69249;42.122;24.734;2023-05-21T00:11:27;19.30;58.10
79762;DHT22;69249;42.122;24.734;2023-05-21T00:13:53;19.50;57.30
79762;DHT22;69249;42.122;24.734;2023-05-21T00:16:20;19.60;57.20
79762;DHT22;69249;42.122;24.734;2023-05-21T00:18:46;19.50;57.70
79762;DHT22;69249;42.122;24.734;2023-05-21T00:21:16;19.30;58.50
79762;DHT22;69249;42.122;24.734;2023-05-21T00:23:43;19.10;59.10
79762;DHT22;69249;42.122;24.734;2023-05-21T00:26:09;19.10;59.20
79762;DHT22;69249;42.122;24.734;2023-05-21T00:28:35;19.10;59.60
79762;DHT22;69249;42.122;24.734;2023-05-21T00:31:01;19.00;60.00
79762;DHT22;69249;42.122;24.734;2023-05-21T00:33:26;19.00;60.00
79762;DHT22;69249;42.122;24.734;2023-05-21T00:35:54;19.00;59.90
79762;DHT22;69249;42.122;24.734;2023-05-21T00:38:19;19.10;59.50
79762;DHT22;69249;42.122;24.734;2023-05-21T00:40:46;19.10;59.50
79762;DHT22;69249;42.122;24.734;2023-05-21T00:43:12;19.10;59.90
79762;DHT22;69249;42.122;24.734;2023-05-21T00:45:40;19.00;60.10
79762;DHT22;69249;42.122;24.734;2023-05-21T00:48:07;18.90;60.60
79762;DHT22;69249;42.122;24.734;2023-05-21T00:50:33;18.80;61.00
79762;DHT22;69249;42.122;24.734;2023-05-21T00:53:00;18.70;61.40
79762;DHT22;69249;42.122;24.734;2023-05-21T00:55:26;18.70;61.80
79762;DHT22;69249;42.122;24.734;2023-05-21T00:57:52;18.60;62.00
79762;DHT22;69249;42.122;24.734;2023-05-21T01:00:18;18.50;62.50
79762;DHT22;69249;42.122;24.734;2023-05-21T01:02:45;18.50;62.60
79762;DHT22;69249;42.122;24.734;2023-05-21T01:05:11;18.50;63.00
79762;DHT22;69249;42.122;24.734;2023-05-21T01:07:38;18.60;62.80
79762;DHT22;69249;42.122;24.734;2023-05-21T01:10:07;18.50;62.80
79762;DHT22;69249;42.122;24.734;2023-05-21T01:12:34;18.40;63.30
79762;DHT22;69249;42.122;24.734;2023-05-21T01:15:01;18.40;63.50
79762;DHT22;69249;42.122;24.734;2023-05-21T01:17:29;18.40;63.60
79762;DHT22;69249;42.122;24.734;2023-05-21T01:19:57;18.30;63.60
79762;DHT22;69249;42.122;24.734;2023-05-21T01:22:24;18.20;64.10
79762;DHT22;69249;42.122;24.734;2023-05-21T01:24:50;18.50;62.50
79762;DHT22;69249;42.122;24.734;2023-05-21T01:27:15;18.70;61.00
79762;DHT22;69249;42.122;24.734;2023-05-21T01:29:42;18.80;60.10
79762;DHT22;69249;42.122;24.734;2023-05-21T01:35:01;18.50;61.40
79762;DHT22;69249;42.122;24.734;2023-05-21T01:40:29;18.50;61.60
79762;DHT22;69249;42.122;24.734;2023-05-21T01:42:57;18.50;61.60
79762;DHT22;69249;42.122;24.734;2023-05-21T01:45:24;18.40;61.90
79762;DHT22;69249;42.122;24.734;2023-05-21T01:47:54;18.30;62.20
79762;DHT22;69249;42.122;24.734;2023-05-21T01:50:24;18.30;62.20
79762;DHT22;69249;42.122;24.734;2023-05-21T01:52:55;18.20;63.30
79762;DHT22;69249;42.122;24.734;2023-05-21T01:55:25;18.10;62.80
79762;DHT22;69249;42.122;24.734;2023-05-21T01:57:54;18.30;62.40
79762;DHT22;69249;42.122;24.734;2023-05-21T02:00:20;18.50;61.60
79762;DHT22;69249;42.122;24.734;2023-05-21T02:02:47;18.70;60.70
79762;DHT22;69249;42.122;24.734;2023-05-21T02:05:13;18.60;61.10
79762;DHT22;69249;42.122;24.734;2023-05-21T02:07:38;18.40;61.60
79762;DHT22;69249;42.122;24.734;2023-05-21T02:10:05;18.30;61.70
79762;DHT22;69249;42.122;24.734;2023-05-21T02:12:31;18.30;61.90
79762;DHT22;69249;42.122;24.734;2023-05-21T02:14:56;18.30;62.00
79762;DHT22;69249;42.122;24.734;2023-05-21T02:17:22;18.30;62.00
79762;DHT22;69249;42.122;24.734;2023-05-21T02:19:51;18.20;62.00
79762;DHT22;69249;42.122;24.734;2023-05-21T02:22:16;18.30;61.70
79762;DHT22;69249;42.122;24.734;2023-05-21T02:24:42;18.50;60.90
79762;DHT22;69249;42.122;24.734;2023-05-21T02:27:08;18.60;60.60
79762;DHT22;69249;42.122;24.734;2023-05-21T02:29:37;18.50;60.60
79762;DHT22;69249;42.122;24.734;2023-05-21T02:32:03;18.60;60.40
79762;DHT22;69249;42.122;24.734;2023-05-21T02:34:29;18.50;60.40
79762;DHT22;69249;42.122;24.734;2023-05-21T02:37:00;18.60;60.30
79762;DHT22;69249;42.122;24.734;2023-05-21T02:39:26;18.80;59.50
79762;DHT22;69249;42.122;24.734;2023-05-21T02:41:52;18.60;60.00
79762;DHT22;69249;42.122;24.734;2023-05-21T02:44:17;18.50;60.60
79762;DHT22;69249;42.122;24.734;2023-05-21T02:46:45;18.50;60.80
79762;DHT22;69249;42.122;24.734;2023-05-21T02:49:10;18.60;60.80
79762;DHT22;69249;42.122;24.734;2023-05-21T02:51:36;18.50;60.90
79762;DHT22;69249;42.122;24.734;2023-05-21T02:54:02;18.40;61.50
79762;DHT22;69249;42.122;24.734;2023-05-21T02:56:28;18.30;61.80
79762;DHT22;69249;42.122;24.734;2023-05-21T02:58:54;18.40;61.70
79762;DHT22;69249;42.122;24.734;2023-05-21T03:01:19;18.40;61.60
79762;DHT22;69249;42.122;24.734;2023-05-21T03:03:45;18.40;61.50
79762;DHT22;69249;42.122;24.734;2023-05-21T03:06:11;18.40;61.50
79762;DHT22;69249;42.122;24.734;2023-05-21T03:08:36;18.40;61.90
79762;DHT22;69249;42.122;24.734;2023-05-21T03:11:03;18.50;61.60
79762;DHT22;69249;42.122;24.734;2023-05-21T03:13:29;18.50;61.70
79762;DHT22;69249;42.122;24.734;2023-05-21T03:15:54;18.50;61.70
79762;DHT22;69249;42.122;24.734;2023-05-21T03:18:21;18.30;62.20
79762;DHT22;69249;42.122;24.734;2023-05-21T03:20:47;18.30;62.20
79762;DHT22;69249;42.122;24.734;2023-05-21T03:23:13;18.40;62.50
79762;DHT22;69249;42.122;24.734;2023-05-21T03:25:40;18.40;62.20
79762;DHT22;69249;42.122;24.734;2023-05-21T03:28:06;18.60;61.60
79762;DHT22;69249;42.122;24.734;2023-05-21T03:30:31;18.60;61.70
79762;DHT22;69249;42.122;24.734;2023-05-21T03:32:57;18.50;61.90
79762;DHT22;69249;42.122;24.734;2023-05-21T03:35:24;18.60;61.60
79762;DHT22;69249;42.122;24.734;2023-05-21T03:37:50;18.40;62.10
79762;DHT22;69249;42.122;24.734;2023-05-21T03:40:16;18.50;62.00
79762;DHT22;69249;42.122;24.734;2023-05-21T03:42:41;18.60;61.30
79762;DHT22;69249;42.122;24.734;2023-05-21T03:45:07;18.90;60.50
79762;DHT22;69249;42.122;24.734;2023-05-21T03:47:33;19.00;60.00
79762;DHT22;69249;42.122;24.734;2023-05-21T03:50:00;18.90;60.10
79762;DHT22;69249;42.122;24.734;2023-05-21T03:52:26;18.80;60.30
79762;DHT22;69249;42.122;24.734;2023-05-21T03:54:52;18.70;60.50
79762;DHT22;69249;42.122;24.734;2023-05-21T03:57:18;18.40;61.90
79762;DHT22;69249;42.122;24.734;2023-05-21T03:59:43;18.30;62.30
79762;DHT22;69249;42.122;24.734;2023-05-21T04:02:09;18.40;62.20
79762;DHT22;69249;42.122;24.734;2023-05-21T04:04:35;18.50;61.60
79762;DHT22;69249;42.122;24.734;2023-05-21T04:07:01;18.50;61.20
79762;DHT22;69249;42.122;24.734;2023-05-21T04:09:29;18.40;61.60
79762;DHT22;69249;42.122;24.734;2023-05-21T04:11:55;18.60;61.10
79762;DHT22;69249;42.122;24.734;2023-05-21T04:14:22;18.70;60.60
79762;DHT22;69249;42.122;24.734;2023-05-21T04:16:47;19.00;59.70
79762;DHT22;69249;42.122;24.734;2023-05-21T04:19:14;19.00;59.70
79762;DHT22;69249;42.122;24.734;2023-05-21T04:21:40;19.10;59.60
79762;DHT22;69249;42.122;24.734;2023-05-21T04:24:06;19.00;60.30
79762;DHT22;69249;42.122;24.734;2023-05-21T04:26:32;18.90;61.10
79762;DHT22;69249;42.122;24.734;2023-05-21T04:28:58;18.90;60.80
79762;DHT22;69249;42.122;24.734;2023-05-21T04:31:28;19.00;60.70
79762;DHT22;69249;42.122;24.734;2023-05-21T04:33:53;19.10;59.60
79762;DHT22;69249;42.122;24.734;2023-05-21T04:36:19;19.20;59.80
79762;DHT22;69249;42.122;24.734;2023-05-21T04:38:45;19.20;59.80
79762;DHT22;69249;42.122;24.734;2023-05-21T04:41:12;19.10;60.00
79762;DHT22;69249;42.122;24.734;2023-05-21T04:43:39;19.20;60.10
79762;DHT22;69249;42.122;24.734;2023-05-21T04:46:08;19.30;59.30
79762;DHT22;69249;42.122;24.734;2023-05-21T04:48:34;19.30;59.40
79762;DHT22;69249;42.122;24.734;2023-05-21T04:50:59;19.30;59.70
79762;DHT22;69249;42.122;24.734;2023-05-21T04:53:25;19.20;59.70
79762;DHT22;69249;42.122;24.734;2023-05-21T04:55:51;19.30;58.60
79762;DHT22;69249;42.122;24.734;2023-05-21T04:58:16;19.50;58.30
79762;DHT22;69249;42.122;24.734;2023-05-21T05:00:43;19.60;57.40
79762;DHT22;69249;42.122;24.734;2023-05-21T05:03:11;19.60;57.90
79762;DHT22;69249;42.122;24.734;2023-05-21T05:05:37;19.60;57.60
79762;DHT22;69249;42.122;24.734;2023-05-21T05:08:03;19.70;57.30
79762;DHT22;69249;42.122;24.734;2023-05-21T05:10:29;19.70;57.20
79762;DHT22;69249;42.122;24.734;2023-05-21T05:12:55;19.60;57.40
79762;DHT22;69249;42.122;24.734;2023-05-21T05:15:20;19.50;58.10
79762;DHT22;69249;42.122;24.734;2023-05-21T05:17:46;19.60;58.10
79762;DHT22;69249;42.122;24.734;2023-05-21T05:20:14;19.60;57.60
79762;DHT22;69249;42.122;24.734;2023-05-21T05:22:40;19.70;57.40
79762;DHT22;69249;42.122;24.734;2023-05-21T05:25:06;19.70;57.60
79762;DHT22;69249;42.122;24.734;2023-05-21T05:27:32;19.70;57.20
79762;DHT22;69249;42.122;24.734;2023-05-21T05:29:58;19.80;56.90
79762;DHT22;69249;42.122;24.734;2023-05-21T05:32:24;19.80;57.20
79762;DHT22;69249;42.122;24.734;2023-05-21T05:34:49;19.70;57.40
79762;DHT22;69249;42.122;24.734;2023-05-21T05:37:15;19.70;57.10
79762;DHT22;69249;42.122;24.734;2023-05-21T05:39:41;19.60;57.70
79762;DHT22;69249;42.122;24.734;2023-05-21T05:42:07;19.60;58.10
79762;DHT22;69249;42.122;24.734;2023-05-21T05:44:33;19.60;58.40
79762;DHT22;69249;42.122;24.734;2023-05-21T05:46:58;19.70;57.60
79762;DHT22;69249;42.122;24.734;2023-05-21T05:49:24;19.90;56.80
79762;DHT22;69249;42.122;24.734;2023-05-21T05:51:50;19.90;57.20
79762;DHT22;69249;42.122;24.734;2023-05-21T05:54:16;19.90;56.80
79762;DHT22;69249;42.122;24.734;2023-05-21T05:56:41;20.00;57.10
79762;DHT22;69249;42.122;24.734;2023-05-21T05:59:07;20.00;57.00
79762;DHT22;69249;42.122;24.734;2023-05-21T06:01:33;19.90;57.40
79762;DHT22;69249;42.122;24.734;2023-05-21T06:03:58;19.80;58.50
79762;DHT22;69249;42.122;24.734;2023-05-21T06:06:24;19.80;58.80
79762;DHT22;69249;42.122;24.734;2023-05-21T06:08:50;19.80;58.40
79762;DHT22;69249;42.122;24.734;2023-05-21T06:11:16;19.90;58.10
79762;DHT22;69249;42.122;24.734;2023-05-21T06:13:43;20.00;57.70
79762;DHT22;69249;42.122;24.734;2023-05-21T06:16:09;20.20;57.20
79762;DHT22;69249;42.122;24.734;2023-05-21T06:18:36;20.20;56.90
79762;DHT22;69249;42.122;24.734;2023-05-21T06:21:02;20.10;57.70
79762;DHT22;69249;42.122;24.734;2023-05-21T06:23:27;20.00;57.90
79762;DHT22;69249;42.122;24.734;2023-05-21T06:25:53;19.90;58.40
79762;DHT22;69249;42.122;24.734;2023-05-21T06:28:19;19.90;58.30
79762;DHT22;69249;42.122;24.734;2023-05-21T06:30:44;19.90;58.40
79762;DHT22;69249;42.122;24.734;2023-05-21T06:33:10;20.00;58.00
79762;DHT22;69249;42.122;24.734;2023-05-21T06:35:36;20.10;58.70
79762;DHT22;69249;42.122;24.734;2023-05-21T06:38:04;20.10;56.80
79762;DHT22;69249;42.122;24.734;2023-05-21T06:40:30;20.10;57.40
79762;DHT22;69249;42.122;24.734;2023-05-21T06:42:55;20.00;57.60
79762;DHT22;69249;42.122;24.734;2023-05-21T06:45:22;20.10;58.10
79762;DHT22;69249;42.122;24.734;2023-05-21T06:47:47;20.10;58.30
79762;DHT22;69249;42.122;24.734;2023-05-21T06:50:13;20.20;58.50
79762;DHT22;69249;42.122;24.734;2023-05-21T06:52:39;20.30;58.40
79762;DHT22;69249;42.122;24.734;2023-05-21T06:55:05;20.50;58.60
79762;DHT22;69249;42.122;24.734;2023-05-21T06:57:31;20.50;58.70
79762;DHT22;69249;42.122;24.734;2023-05-21T06:59:57;20.70;58.30
79762;DHT22;69249;42.122;24.734;2023-05-21T07:02:22;20.80;58.10
79762;DHT22;69249;42.122;24.734;2023-05-21T07:04:48;20.60;57.80
79762;DHT22;69249;42.122;24.734;2023-05-21T07:07:14;20.50;58.40
79762;DHT22;69249;42.122;24.734;2023-05-21T07:09:39;20.60;58.30
79762;DHT22;69249;42.122;24.734;2023-05-21T07:12:05;20.60;58.20
79762;DHT22;69249;42.122;24.734;2023-05-21T07:14:31;20.70;57.70
79762;DHT22;69249;42.122;24.734;2023-05-21T07:16:57;20.70;57.60
79762;DHT22;69249;42.122;24.734;2023-05-21T07:19:22;20.90;56.90
79762;DHT22;69249;42.122;24.734;2023-05-21T07:21:48;21.10;56.60
79762;DHT22;69249;42.122;24.734;2023-05-21T07:24:14;21.40;55.60
79762;DHT22;69249;42.122;24.734;2023-05-21T07:26:40;21.50;55.50
79762;DHT22;69249;42.122;24.734;2023-05-21T07:29:06;21.60;54.60
79762;DHT22;69249;42.122;24.734;2023-05-21T07:31:31;21.60;54.60
79762;DHT22;69249;42.122;24.734;2023-05-21T07:33:57;21.80;53.00
79762;DHT22;69249;42.122;24.734;2023-05-21T07:36:23;21.90;51.80
79762;DHT22;69249;42.122;24.734;2023-05-21T07:38:48;22.10;51.90
79762;DHT22;69249;42.122;24.734;2023-05-21T07:41:14;22.30;51.00
79762;DHT22;69249;42.122;24.734;2023-05-21T07:43:40;22.50;48.90
79762;DHT22;69249;42.122;24.734;2023-05-21T07:46:05;22.60;48.40
79762;DHT22;69249;42.122;24.734;2023-05-21T07:48:31;22.70;48.40
79762;DHT22;69249;42.122;24.734;2023-05-21T07:50:57;22.80;47.00
79762;DHT22;69249;42.122;24.734;2023-05-21T07:53:23;22.90;46.10
79762;DHT22;69249;42.122;24.734;2023-05-21T07:55:49;23.00;45.00
79762;DHT22;69249;42.122;24.734;2023-05-21T07:58:15;23.10;44.90
79762;DHT22;69249;42.122;24.734;2023-05-21T08:00:46;23.40;44.20
79762;DHT22;69249;42.122;24.734;2023-05-21T08:03:15;23.60;43.80
79762;DHT22;69249;42.122;24.734;2023-05-21T08:05:42;23.70;43.40
79762;DHT22;69249;42.122;24.734;2023-05-21T08:08:16;23.80;43.30
79762;DHT22;69249;42.122;24.734;2023-05-21T08:10:42;23.80;43.40
79762;DHT22;69249;42.122;24.734;2023-05-21T08:13:10;24.10;43.50
79762;DHT22;69249;42.122;24.734;2023-05-21T08:15:36;24.40;42.90
79762;DHT22;69249;42.122;24.734;2023-05-21T08:18:01;24.60;42.20
79762;DHT22;69249;42.122;24.734;2023-05-21T08:20:27;24.80;42.00
79762;DHT22;69249;42.122;24.734;2023-05-21T08:22:55;24.90;41.10
79762;DHT22;69249;42.122;24.734;2023-05-21T08:25:21;25.10;41.50
79762;DHT22;69249;42.122;24.734;2023-05-21T08:27:47;25.30;40.10
79762;DHT22;69249;42.122;24.734;2023-05-21T08:30:13;25.40;39.40
79762;DHT22;69249;42.122;24.734;2023-05-21T08:32:39;25.70;38.30
79762;DHT22;69249;42.122;24.734;2023-05-21T08:35:05;25.90;38.00
79762;DHT22;69249;42.122;24.734;2023-05-21T08:37:31;26.00;37.90
79762;DHT22;69249;42.122;24.734;2023-05-21T08:39:58;26.10;35.60
79762;DHT22;69249;42.122;24.734;2023-05-21T08:42:38;26.20;34.50
79762;DHT22;69249;42.122;24.734;2023-05-21T08:45:05;26.10;34.80
79762;DHT22;69249;42.122;24.734;2023-05-21T08:47:34;26.20;35.90
79762;DHT22;69249;42.122;24.734;2023-05-21T08:50:06;26.30;36.20
79762;DHT22;69249;42.122;24.734;2023-05-21T08:52:33;26.40;35.30
79762;DHT22;69249;42.122;24.734;2023-05-21T08:55:02;26.40;34.50
79762;DHT22;69249;42.122;24.734;2023-05-21T08:57:30;26.30;34.50
79762;DHT22;69249;42.122;24.734;2023-05-21T08:59:56;26.10;33.80
79762;DHT22;69249;42.122;24.734;2023-05-21T09:02:22;26.00;35.80
79762;DHT22;69249;42.122;24.734;2023-05-21T09:04:52;25.90;33.60
79762;DHT22;69249;42.122;24.734;2023-05-21T09:07:23;26.00;33.30
79762;DHT22;69249;42.122;24.734;2023-05-21T09:10:01;25.90;32.70
79762;DHT22;69249;42.122;24.734;2023-05-21T09:12:27;25.90;33.60
79762;DHT22;69249;42.122;24.734;2023-05-21T09:14:53;26.00;32.70
79762;DHT22;69249;42.122;24.734;2023-05-21T09:17:19;25.90;33.30
79762;DHT22;69249;42.122;24.734;2023-05-21T09:22:44;26.10;32.30
79762;DHT22;69249;42.122;24.734;2023-05-21T09:25:15;26.20;33.20
79762;DHT22;69249;42.122;24.734;2023-05-21T09:27:40;26.20;32.60
79762;DHT22;69249;42.122;24.734;2023-05-21T09:30:11;26.20;32.70
79762;DHT22;69249;42.122;24.734;2023-05-21T09:32:38;26.20;32.90
79762;DHT22;69249;42.122;24.734;2023-05-21T09:35:06;26.20;32.70
79762;DHT22;69249;42.122;24.734;2023-05-21T09:37:40;26.20;33.00
79762;DHT22;69249;42.122;24.734;2023-05-21T09:40:28;26.20;32.60
79762;DHT22;69249;42.122;24.734;2023-05-21T09:42:54;26.30;32.40
79762;DHT22;69249;42.122;24.734;2023-05-21T09:45:21;26.30;33.10
79762;DHT22;69249;42.122;24.734;2023-05-21T09:47:48;26.30;33.80
79762;DHT22;69249;42.122;24.734;2023-05-21T09:50:20;26.40;32.00
79762;DHT22;69249;42.122;24.734;2023-05-21T09:52:46;26.30;33.40
79762;DHT22;69249;42.122;24.734;2023-05-21T09:55:13;26.00;34.90
79762;DHT22;69249;42.122;24.734;2023-05-21T09:57:42;25.70;35.40
79762;DHT22;69249;42.122;24.734;2023-05-21T10:00:22;25.40;36.00
79762;DHT22;69249;42.122;24.734;2023-05-21T10:02:56;25.30;36.40
79762;DHT22;69249;42.122;24.734;2023-05-21T10:05:29;25.30;35.90
79762;DHT22;69249;42.122;24.734;2023-05-21T10:08:03;25.30;36.00
79762;DHT22;69249;42.122;24.734;2023-05-21T10:10:30;25.50;35.40
79762;DHT22;69249;42.122;24.734;2023-05-21T10:13:07;25.60;33.80
79762;DHT22;69249;42.122;24.734;2023-05-21T10:15:45;25.60;32.70
79762;DHT22;69249;42.122;24.734;2023-05-21T10:18:12;25.60;31.80
79762;DHT22;69249;42.122;24.734;2023-05-21T10:20:38;25.50;32.60
79762;DHT22;69249;42.122;24.734;2023-05-21T10:23:05;25.20;35.20
79762;DHT22;69249;42.122;24.734;2023-05-21T10:25:31;24.90;34.00
79762;DHT22;69249;42.122;24.734;2023-05-21T10:27:57;24.60;34.70
79762;DHT22;69249;42.122;24.734;2023-05-21T10:30:23;24.50;36.60
79762;DHT22;69249;42.122;24.734;2023-05-21T10:32:49;24.10;38.60
79762;DHT22;69249;42.122;24.734;2023-05-21T10:35:16;24.00;39.40
79762;DHT22;69249;42.122;24.734;2023-05-21T10:37:45;23.90;40.10
79762;DHT22;69249;42.122;24.734;2023-05-21T10:40:11;23.90;41.20
79762;DHT22;69249;42.122;24.734;2023-05-21T10:54:46;25.00;39.50
79762;DHT22;69249;42.122;24.734;2023-05-21T10:59:54;25.40;39.10
79762;DHT22;69249;42.122;24.734;2023-05-21T11:02:25;25.40;35.40
79762;DHT22;69249;42.122;24.734;2023-05-21T11:04:59;25.40;36.70
79762;DHT22;69249;42.122;24.734;2023-05-21T11:07:56;25.20;36.30
79762;DHT22;69249;42.122;24.734;2023-05-21T11:13:13;24.90;37.30
79762;DHT22;69249;42.122;24.734;2023-05-21T11:24:01;24.60;38.20
79762;DHT22;69249;42.122;24.734;2023-05-21T11:29:31;24.70;37.50
79762;DHT22;69249;42.122;24.734;2023-05-21T11:32:01;24.90;37.80
79762;DHT22;69249;42.122;24.734;2023-05-21T11:39:45;24.90;36.80
79762;DHT22;69249;42.122;24.734;2023-05-21T11:42:11;25.00;36.50
79762;DHT22;69249;42.122;24.734;2023-05-21T11:44:45;25.10;36.40
79762;DHT22;69249;42.122;24.734;2023-05-21T11:47:16;25.20;36.10
79762;DHT22;69249;42.122;24.734;2023-05-21T11:49:42;25.30;36.50
79762;DHT22;69249;42.122;24.734;2023-05-21T11:52:10;25.20;37.30
79762;DHT22;69249;42.122;24.734;2023-05-21T11:54:42;25.10;36.30
79762;DHT22;69249;42.122;24.734;2023-05-21T11:57:11;24.90;36.90
79762;DHT22;69249;42.122;24.734;2023-05-21T11:59:36;24.80;37.40
79762;DHT22;69249;42.122;24.734;2023-05-21T12:02:03;24.60;38.20
79762;DHT22;69249;42.122;24.734;2023-05-21T12:04:33;24.50;38.40
79762;DHT22;69249;42.122;24.734;2023-05-21T12:07:10;24.50;38.70
79762;DHT22;69249;42.122;24.734;2023-05-21T12:09:45;24.50;38.70
79762;DHT22;69249;42.122;24.734;2023-05-21T12:12:17;24.50;38.30
79762;DHT22;69249;42.122;24.734;2023-05-21T12:14:44;24.50;38.60
79762;DHT22;69249;42.122;24.734;2023-05-21T12:17:11;24.40;39.30
79762;DHT22;69249;42.122;24.734;2023-05-21T12:19:40;24.40;39.80
79762;DHT22;69249;42.122;24.734;2023-05-21T12:22:06;24.20;39.30
79762;DHT22;69249;42.122;24.734;2023-05-21T12:24:32;24.10;40.60
79762;DHT22;69249;42.122;24.734;2023-05-21T12:27:01;24.10;39.40
79762;DHT22;69249;42.122;24.734;2023-05-21T12:29:30;24.00;39.60
79762;DHT22;69249;42.122;24.734;2023-05-21T12:32:01;23.90;40.10
79762;DHT22;69249;42.122;24.734;2023-05-21T12:34:50;24.00;39.70
79762;DHT22;69249;42.122;24.734;2023-05-21T12:39:49;23.80;42.20
79762;DHT22;69249;42.122;24.734;2023-05-21T12:42:15;23.70;41.50
79762;DHT22;69249;42.122;24.734;2023-05-21T12:44:46;23.70;41.30
79762;DHT22;69249;42.122;24.734;2023-05-21T12:47:12;23.70;43.30
79762;DHT22;69249;42.122;24.734;2023-05-21T12:49:45;23.70;43.70
79762;DHT22;69249;42.122;24.734;2023-05-21T12:52:14;23.90;41.90
79762;DHT22;69249;42.122;24.734;2023-05-21T12:54:45;23.90;42.10
79762;DHT22;69249;42.122;24.734;2023-05-21T12:57:21;24.20;41.60
79762;DHT22;69249;42.122;24.734;2023-05-21T12:59:57;24.40;41.00
79762;DHT22;69249;42.122;24.734;2023-05-21T13:02:36;24.60;40.00
79762;DHT22;69249;42.122;24.734;2023-05-21T13:05:04;25.00;37.60
79762;DHT22;69249;42.122;24.734;2023-05-21T13:07:31;25.20;37.30
79762;DHT22;69249;42.122;24.734;2023-05-21T13:09:58;25.40;37.20
79762;DHT22;69249;42.122;24.734;2023-05-21T13:12:26;25.60;37.80
79762;DHT22;69249;42.122;24.734;2023-05-21T13:14:53;25.80;37.30
79762;DHT22;69249;42.122;24.734;2023-05-21T13:17:20;26.00;37.10
79762;DHT22;69249;42.122;24.734;2023-05-21T13:20:09;26.10;37.70
79762;DHT22;69249;42.122;24.734;2023-05-21T13:22:44;26.30;36.20
79762;DHT22;69249;42.122;24.734;2023-05-21T13:25:15;26.40;35.90
79762;DHT22;69249;42.122;24.734;2023-05-21T13:27:43;26.50;33.20
79762;DHT22;69249;42.122;24.734;2023-05-21T13:30:09;26.60;33.20
79762;DHT22;69249;42.122;24.734;2023-05-21T13:32:41;26.70;34.30
79762;DHT22;69249;42.122;24.734;2023-05-21T13:35:08;26.70;34.70
79762;DHT22;69249;42.122;24.734;2023-05-21T13:37:35;26.70;34.10
79762;DHT22;69249;42.122;24.734;2023-05-21T13:40:05;26.70;33.20
79762;DHT22;69249;42.122;24.734;2023-05-21T13:42:32;26.60;32.70
79762;DHT22;69249;42.122;24.734;2023-05-21T13:44:58;26.60;32.50
79762;DHT22;69249;42.122;24.734;2023-05-21T13:47:24;26.40;33.20
79762;DHT22;69249;42.122;24.734;2023-05-21T13:49:50;26.30;33.30
79762;DHT22;69249;42.122;24.734;2023-05-21T13:52:15;26.20;33.40
79762;DHT22;69249;42.122;24.734;2023-05-21T13:54:42;26.10;34.90
79762;DHT22;69249;42.122;24.734;2023-05-21T13:57:08;26.10;33.10
79762;DHT22;69249;42.122;24.734;2023-05-21T13:59:33;26.10;33.00
79762;DHT22;69249;42.122;24.734;2023-05-21T14:02:00;26.00;33.00
79762;DHT22;69249;42.122;24.734;2023-05-21T14:04:25;25.90;34.40
79762;DHT22;69249;42.122;24.734;2023-05-21T14:06:51;25.90;33.00
79762;DHT22;69249;42.122;24.734;2023-05-21T14:09:17;25.80;33.30
79762;DHT22;69249;42.122;24.734;2023-05-21T14:11:43;25.70;34.30
79762;DHT22;69249;42.122;24.734;2023-05-21T14:14:09;25.60;34.00
79762;DHT22;69249;42.122;24.734;2023-05-21T14:16:34;25.80;33.30
79762;DHT22;69249;42.122;24.734;2023-05-21T14:19:00;25.70;33.20
79762;DHT22;69249;42.122;24.734;2023-05-21T14:21:26;25.70;34.30
79762;DHT22;69249;42.122;24.734;2023-05-21T14:23:52;25.60;35.40
79762;DHT22;69249;42.122;24.734;2023-05-21T14:26:18;25.60;37.90
79762;DHT22;69249;42.122;24.734;2023-05-21T14:28:44;25.50;36.90
79762;DHT22;69249;42.122;24.734;2023-05-21T14:31:10;25.40;36.70
79762;DHT22;69249;42.122;24.734;2023-05-21T14:33:37;25.40;37.20
79762;DHT22;69249;42.122;24.734;2023-05-21T14:36:06;25.50;36.90
79762;DHT22;69249;42.122;24.734;2023-05-21T14:38:31;25.40;35.90
79762;DHT22;69249;42.122;24.734;2023-05-21T14:40:57;25.40;34.90
79762;DHT22;69249;42.122;24.734;2023-05-21T14:43:23;25.40;34.60
79762;DHT22;69249;42.122;24.734;2023-05-21T14:45:49;25.50;34.70
79762;DHT22;69249;42.122;24.734;2023-05-21T14:48:18;25.50;34.70
79762;DHT22;69249;42.122;24.734;2023-05-21T14:50:50;25.50;35.00
79762;DHT22;69249;42.122;24.734;2023-05-21T14:53:17;25.50;34.20
79762;DHT22;69249;42.122;24.734;2023-05-21T14:55:43;25.40;33.90
79762;DHT22;69249;42.122;24.734;2023-05-21T14:58:09;25.20;34.10
79762;DHT22;69249;42.122;24.734;2023-05-21T15:00:35;25.20;34.20
79762;DHT22;69249;42.122;24.734;2023-05-21T15:03:01;25.30;34.80
79762;DHT22;69249;42.122;24.734;2023-05-21T15:05:27;25.10;34.90
79762;DHT22;69249;42.122;24.734;2023-05-21T15:07:54;25.00;35.70
79762;DHT22;69249;42.122;24.734;2023-05-21T15:10:22;25.00;35.70
79762;DHT22;69249;42.122;24.734;2023-05-21T15:12:48;24.90;36.40
79762;DHT22;69249;42.122;24.734;2023-05-21T15:15:13;24.80;37.50
79762;DHT22;69249;42.122;24.734;2023-05-21T15:17:41;24.80;38.90
79762;DHT22;69249;42.122;24.734;2023-05-21T15:20:07;24.80;37.80
79762;DHT22;69249;42.122;24.734;2023-05-21T15:22:34;24.70;38.10
79762;DHT22;69249;42.122;24.734;2023-05-21T15:25:00;24.60;38.00
79762;DHT22;69249;42.122;24.734;2023-05-21T15:27:26;24.50;38.30
79762;DHT22;69249;42.122;24.734;2023-05-21T15:29:52;24.30;38.80
79762;DHT22;69249;42.122;24.734;2023-05-21T15:32:18;24.30;39.00
79762;DHT22;69249;42.122;24.734;2023-05-21T15:34:47;24.10;39.20
79762;DHT22;69249;42.122;24.734;2023-05-21T15:37:14;24.00;39.80
79762;DHT22;69249;42.122;24.734;2023-05-21T15:39:44;23.90;40.40
79762;DHT22;69249;42.122;24.734;2023-05-21T15:42:10;23.80;40.70
79762;DHT22;69249;42.122;24.734;2023-05-21T15:44:36;23.90;41.20
79762;DHT22;69249;42.122;24.734;2023-05-21T15:47:02;23.80;40.90
79762;DHT22;69249;42.122;24.734;2023-05-21T15:49:28;23.80;41.00
79762;DHT22;69249;42.122;24.734;2023-05-21T15:51:54;23.80;41.10
79762;DHT22;69249;42.122;24.734;2023-05-21T15:54:21;23.70;40.90
79762;DHT22;69249;42.122;24.734;2023-05-21T15:56:48;23.60;41.10
79762;DHT22;69249;42.122;24.734;2023-05-21T15:59:14;23.50;40.90
79762;DHT22;69249;42.122;24.734;2023-05-21T16:01:40;23.50;41.30